Terminal Aerodrome Forecast
Issued by NWS

Home | Current Version | Previous Version | Text Only | Print | Product List | Glossary On
Versions: 1 2 3 4 5 6 7 8 9 10 11 12 13
000
FTUS46 KSEW 182300
TAFBLI
TAF
KBLI 182330Z 1900/1924 00000KT P6SM OVC040
     FM190200 13012G25KT P6SM -RA OVC035
     FM190600 13015G28KT 5SM -RA BR OVC030 WS020/19045KT
     FM190800 17010KT P6SM VCSH BKN025 BKN035=

USA.gov is the U.S. government's official web portal to all federal, state and local government web resources and services.